sensor_id;sensor_type;location;lat;lon;timestamp;temperature;humidity
23744;DHT22;12052;53.478;10.182;2022-12-18T00:01:30;-5.90;99.90
23744;DHT22;12052;53.478;10.182;2022-12-18T00:04:00;-5.90;99.90
23744;DHT22;12052;53.478;10.182;2022-12-18T00:06:27;-5.80;99.90
23744;DHT22;12052;53.478;10.182;2022-12-18T00:08:55;-5.80;99.90
23744;DHT22;12052;53.478;10.182;2022-12-18T00:11:24;-5.80;99.90
23744;DHT22;12052;53.478;10.182;2022-12-18T00:13:50;-5.80;99.90
23744;DHT22;12052;53.478;10.182;2022-12-18T00:16:18;-5.90;99.90
23744;DHT22;12052;53.478;10.182;2022-12-18T00:18:51;-5.90;99.90
23744;DHT22;12052;53.478;10.182;2022-12-18T00:21:17;-5.90;99.90
23744;DHT22;12052;53.478;10.182;2022-12-18T00:23:44;-5.90;99.90
23744;DHT22;12052;53.478;10.182;2022-12-18T00:26:13;-5.90;99.90
23744;DHT22;12052;53.478;10.182;2022-12-18T00:28:40;-5.90;99.90
23744;DHT22;12052;53.478;10.182;2022-12-18T00:31:12;-5.90;99.90
23744;DHT22;12052;53.478;10.182;2022-12-18T00:33:38;-5.90;99.90
23744;DHT22;12052;53.478;10.182;2022-12-18T00:36:10;-5.90;99.90
23744;DHT22;12052;53.478;10.182;2022-12-18T00:38:36;-5.90;99.90
23744;DHT22;12052;53.478;10.182;2022-12-18T00:41:02;-5.90;99.90
23744;DHT22;12052;53.478;10.182;2022-12-18T00:43:28;-5.90;99.90
23744;DHT22;12052;53.478;10.182;2022-12-18T00:45:54;-6.00;99.90
23744;DHT22;12052;53.478;10.182;2022-12-18T00:48:19;-6.00;99.90
23744;DHT22;12052;53.478;10.182;2022-12-18T00:50:47;-6.00;99.90
23744;DHT22;12052;53.478;10.182;2022-12-18T00:53:12;-6.00;99.90
23744;DHT22;12052;53.478;10.182;2022-12-18T00:55:42;-6.00;99.90
23744;DHT22;12052;53.478;10.182;2022-12-18T00:58:09;-6.10;99.90
23744;DHT22;12052;53.478;10.182;2022-12-18T01:00:35;-6.10;99.90
23744;DHT22;12052;53.478;10.182;2022-12-18T01:03:00;-6.10;99.90
23744;DHT22;12052;53.478;10.182;2022-12-18T01:05:26;-6.10;99.90
23744;DHT22;12052;53.478;10.182;2022-12-18T01:07:52;-6.20;99.90
23744;DHT22;12052;53.478;10.182;2022-12-18T01:10:18;-6.20;99.90
23744;DHT22;12052;53.478;10.182;2022-12-18T01:12:43;-6.20;99.90
23744;DHT22;12052;53.478;10.182;2022-12-18T01:15:10;-6.20;99.90
23744;DHT22;12052;53.478;10.182;2022-12-18T01:17:37;-6.30;99.90
23744;DHT22;12052;53.478;10.182;2022-12-18T01:20:03;-6.30;99.90
23744;DHT22;12052;53.478;10.182;2022-12-18T01:22:29;-6.30;99.90
23744;DHT22;12052;53.478;10.182;2022-12-18T01:24:54;-6.40;99.90
23744;DHT22;12052;53.478;10.182;2022-12-18T01:27:20;-6.40;99.90
23744;DHT22;12052;53.478;10.182;2022-12-18T01:29:46;-6.40;99.90
23744;DHT22;12052;53.478;10.182;2022-12-18T01:32:11;-6.40;99.90
23744;DHT22;12052;53.478;10.182;2022-12-18T01:34:37;-6.40;99.90
23744;DHT22;12052;53.478;10.182;2022-12-18T01:37:04;-6.40;99.90
23744;DHT22;12052;53.478;10.182;2022-12-18T01:39:30;-6.40;99.90
23744;DHT22;12052;53.478;10.182;2022-12-18T01:42:02;-6.40;99.90
23744;DHT22;12052;53.478;10.182;2022-12-18T01:47:34;-6.40;99.90
23744;DHT22;12052;53.478;10.182;2022-12-18T01:50:17;-6.40;99.90
23744;DHT22;12052;53.478;10.182;2022-12-18T01:52:46;-6.40;99.90
23744;DHT22;12052;53.478;10.182;2022-12-18T01:55:16;-6.40;99.90
23744;DHT22;12052;53.478;10.182;2022-12-18T01:57:43;-6.40;99.90
23744;DHT22;12052;53.478;10.182;2022-12-18T02:00:28;-6.40;99.90
23744;DHT22;12052;53.478;10.182;2022-12-18T02:02:54;-6.50;99.90
23744;DHT22;12052;53.478;10.182;2022-12-18T02:08:08;-6.50;99.90
23744;DHT22;12052;53.478;10.182;2022-12-18T02:13:32;-6.50;99.90
23744;DHT22;12052;53.478;10.182;2022-12-18T02:16:21;-6.50;99.90
23744;DHT22;12052;53.478;10.182;2022-12-18T02:18:52;-6.60;99.90
23744;DHT22;12052;53.478;10.182;2022-12-18T02:21:34;-6.60;99.90
23744;DHT22;12052;53.478;10.182;2022-12-18T02:24:33;-6.60;99.90
23744;DHT22;12052;53.478;10.182;2022-12-18T02:27:03;-6.70;99.90
23744;DHT22;12052;53.478;10.182;2022-12-18T02:29:35;-6.70;99.90
23744;DHT22;12052;53.478;10.182;2022-12-18T02:32:10;-6.80;99.90
23744;DHT22;12052;53.478;10.182;2022-12-18T02:34:38;-6.80;99.90
23744;DHT22;12052;53.478;10.182;2022-12-18T02:37:14;-6.80;99.90
23744;DHT22;12052;53.478;10.182;2022-12-18T02:39:42;-6.90;99.90
23744;DHT22;12052;53.478;10.182;2022-12-18T02:42:09;-6.90;99.90
23744;DHT22;12052;53.478;10.182;2022-12-18T02:44:42;-6.90;99.90
23744;DHT22;12052;53.478;10.182;2022-12-18T02:47:11;-6.90;99.90
23744;DHT22;12052;53.478;10.182;2022-12-18T02:55:26;-6.90;99.90
23744;DHT22;12052;53.478;10.182;2022-12-18T03:01:16;-6.90;99.90
23744;DHT22;12052;53.478;10.182;2022-12-18T03:03:52;-6.90;99.90
23744;DHT22;12052;53.478;10.182;2022-12-18T03:06:28;-6.90;99.90
23744;DHT22;12052;53.478;10.182;2022-12-18T03:08:59;-6.90;99.90
23744;DHT22;12052;53.478;10.182;2022-12-18T03:11:28;-6.90;99.90
23744;DHT22;12052;53.478;10.182;2022-12-18T03:14:15;-6.90;99.90
23744;DHT22;12052;53.478;10.182;2022-12-18T03:16:43;-6.90;99.90
23744;DHT22;12052;53.478;10.182;2022-12-18T03:19:19;-7.00;99.90
23744;DHT22;12052;53.478;10.182;2022-12-18T03:21:50;-7.00;99.90
23744;DHT22;12052;53.478;10.182;2022-12-18T03:24:17;-7.00;99.90
23744;DHT22;12052;53.478;10.182;2022-12-18T03:26:47;-7.00;99.90
23744;DHT22;12052;53.478;10.182;2022-12-18T03:32:02;-7.00;99.90
23744;DHT22;12052;53.478;10.182;2022-12-18T03:34:31;-7.10;99.90
23744;DHT22;12052;53.478;10.182;2022-12-18T03:36:57;-7.10;99.90
23744;DHT22;12052;53.478;10.182;2022-12-18T03:39:24;-7.10;99.90
23744;DHT22;12052;53.478;10.182;2022-12-18T03:44:53;-7.20;99.90
23744;DHT22;12052;53.478;10.182;2022-12-18T03:47:42;-7.20;99.90
23744;DHT22;12052;53.478;10.182;2022-12-18T03:50:14;-7.20;99.90
23744;DHT22;12052;53.478;10.182;2022-12-18T03:52:50;-7.30;99.90
23744;DHT22;12052;53.478;10.182;2022-12-18T03:55:18;-7.30;99.90
23744;DHT22;12052;53.478;10.182;2022-12-18T03:57:45;-7.30;99.90
23744;DHT22;12052;53.478;10.182;2022-12-18T04:00:15;-7.30;99.90
23744;DHT22;12052;53.478;10.182;2022-12-18T04:02:49;-7.30;99.90
23744;DHT22;12052;53.478;10.182;2022-12-18T04:05:17;-7.30;99.90
23744;DHT22;12052;53.478;10.182;2022-12-18T04:07:45;-7.30;99.90
23744;DHT22;12052;53.478;10.182;2022-12-18T04:10:12;-7.30;99.90
23744;DHT22;12052;53.478;10.182;2022-12-18T04:12:38;-7.30;99.90
23744;DHT22;12052;53.478;10.182;2022-12-18T04:15:04;-7.30;99.90
23744;DHT22;12052;53.478;10.182;2022-12-18T04:17:30;-7.30;99.90
23744;DHT22;12052;53.478;10.182;2022-12-18T04:19:55;-7.30;99.90
23744;DHT22;12052;53.478;10.182;2022-12-18T04:22:21;-7.30;99.90
23744;DHT22;12052;53.478;10.182;2022-12-18T04:24:46;-7.40;99.90
23744;DHT22;12052;53.478;10.182;2022-12-18T04:27:12;-7.40;99.90
23744;DHT22;12052;53.478;10.182;2022-12-18T04:29:38;-7.40;99.90
23744;DHT22;12052;53.478;10.182;2022-12-18T04:32:03;-7.40;99.90
23744;DHT22;12052;53.478;10.182;2022-12-18T04:34:29;-7.40;99.90
23744;DHT22;12052;53.478;10.182;2022-12-18T04:36:54;-7.40;99.90
23744;DHT22;12052;53.478;10.182;2022-12-18T04:39:20;-7.40;99.90
23744;DHT22;12052;53.478;10.182;2022-12-18T04:41:46;-7.40;99.90
23744;DHT22;12052;53.478;10.182;2022-12-18T04:44:11;-7.40;99.90
23744;DHT22;12052;53.478;10.182;2022-12-18T04:46:37;-7.50;99.90
23744;DHT22;12052;53.478;10.182;2022-12-18T04:49:02;-7.50;99.90
23744;DHT22;12052;53.478;10.182;2022-12-18T04:51:28;-7.50;99.90
23744;DHT22;12052;53.478;10.182;2022-12-18T04:53:54;-7.50;99.90
23744;DHT22;12052;53.478;10.182;2022-12-18T04:56:20;-7.50;99.90
23744;DHT22;12052;53.478;10.182;2022-12-18T04:58:45;-7.50;99.90
23744;DHT22;12052;53.478;10.182;2022-12-18T05:01:12;-7.50;99.90
23744;DHT22;12052;53.478;10.182;2022-12-18T05:03:38;-7.60;99.90
23744;DHT22;12052;53.478;10.182;2022-12-18T05:06:05;-7.60;99.90
23744;DHT22;12052;53.478;10.182;2022-12-18T05:08:31;-7.60;99.90
23744;DHT22;12052;53.478;10.182;2022-12-18T05:11:01;-7.60;99.90
23744;DHT22;12052;53.478;10.182;2022-12-18T05:13:28;-7.60;99.90
23744;DHT22;12052;53.478;10.182;2022-12-18T05:15:54;-7.60;99.90
23744;DHT22;12052;53.478;10.182;2022-12-18T05:18:20;-7.60;99.90
23744;DHT22;12052;53.478;10.182;2022-12-18T05:20:45;-7.70;99.90
23744;DHT22;12052;53.478;10.182;2022-12-18T05:23:11;-7.60;99.90
23744;DHT22;12052;53.478;10.182;2022-12-18T05:25:37;-7.70;99.90
23744;DHT22;12052;53.478;10.182;2022-12-18T05:28:02;-7.70;99.90
23744;DHT22;12052;53.478;10.182;2022-12-18T05:30:28;-7.70;99.90
23744;DHT22;12052;53.478;10.182;2022-12-18T05:32:53;-7.70;99.90
23744;DHT22;12052;53.478;10.182;2022-12-18T05:35:19;-7.70;99.90
23744;DHT22;12052;53.478;10.182;2022-12-18T05:37:45;-7.70;99.90
23744;DHT22;12052;53.478;10.182;2022-12-18T05:40:11;-7.70;99.90
23744;DHT22;12052;53.478;10.182;2022-12-18T05:42:37;-7.80;99.90
23744;DHT22;12052;53.478;10.182;2022-12-18T05:45:04;-7.70;99.90
23744;DHT22;12052;53.478;10.182;2022-12-18T05:47:30;-7.70;99.90
23744;DHT22;12052;53.478;10.182;2022-12-18T05:49:55;-7.70;99.90
23744;DHT22;12052;53.478;10.182;2022-12-18T05:52:21;-7.70;99.90
23744;DHT22;12052;53.478;10.182;2022-12-18T05:54:46;-7.70;99.90
23744;DHT22;12052;53.478;10.182;2022-12-18T05:57:12;-7.70;99.90
23744;DHT22;12052;53.478;10.182;2022-12-18T05:59:38;-7.70;99.90
23744;DHT22;12052;53.478;10.182;2022-12-18T06:02:03;-7.70;99.90
23744;DHT22;12052;53.478;10.182;2022-12-18T06:04:29;-7.70;99.90
23744;DHT22;12052;53.478;10.182;2022-12-18T06:06:55;-7.70;99.90
23744;DHT22;12052;53.478;10.182;2022-12-18T06:09:20;-7.70;99.90
23744;DHT22;12052;53.478;10.182;2022-12-18T06:11:46;-7.70;99.90
23744;DHT22;12052;53.478;10.182;2022-12-18T06:14:11;-7.70;99.90
23744;DHT22;12052;53.478;10.182;2022-12-18T06:16:37;-7.70;99.90
23744;DHT22;12052;53.478;10.182;2022-12-18T06:19:04;-7.70;99.90
23744;DHT22;12052;53.478;10.182;2022-12-18T06:21:31;-7.70;99.90
23744;DHT22;12052;53.478;10.182;2022-12-18T06:23:57;-7.70;99.90
23744;DHT22;12052;53.478;10.182;2022-12-18T06:26:23;-7.70;99.90
23744;DHT22;12052;53.478;10.182;2022-12-18T06:28:49;-7.80;99.90
23744;DHT22;12052;53.478;10.182;2022-12-18T06:31:14;-7.80;99.90
23744;DHT22;12052;53.478;10.182;2022-12-18T06:33:40;-7.80;99.90
23744;DHT22;12052;53.478;10.182;2022-12-18T06:36:11;-7.80;99.90
23744;DHT22;12052;53.478;10.182;2022-12-18T06:38:39;-7.80;99.90
23744;DHT22;12052;53.478;10.182;2022-12-18T06:41:10;-7.90;99.90
23744;DHT22;12052;53.478;10.182;2022-12-18T06:43:36;-7.90;99.90
23744;DHT22;12052;53.478;10.182;2022-12-18T06:46:02;-7.90;99.90
23744;DHT22;12052;53.478;10.182;2022-12-18T06:48:28;-7.90;99.90
23744;DHT22;12052;53.478;10.182;2022-12-18T06:50:54;-7.90;99.90
23744;DHT22;12052;53.478;10.182;2022-12-18T06:53:19;-7.90;99.90
23744;DHT22;12052;53.478;10.182;2022-12-18T06:55:45;-7.90;99.90
23744;DHT22;12052;53.478;10.182;2022-12-18T06:58:11;-7.90;99.90
23744;DHT22;12052;53.478;10.182;2022-12-18T07:00:36;-8.00;99.90
23744;DHT22;12052;53.478;10.182;2022-12-18T07:03:02;-8.00;99.90
23744;DHT22;12052;53.478;10.182;2022-12-18T07:05:27;-8.00;99.90
23744;DHT22;12052;53.478;10.182;2022-12-18T07:07:53;-8.00;99.90
23744;DHT22;12052;53.478;10.182;2022-12-18T07:10:18;-8.00;99.90
23744;DHT22;12052;53.478;10.182;2022-12-18T07:12:44;-8.00;99.90
23744;DHT22;12052;53.478;10.182;2022-12-18T07:15:10;-8.00;99.90
23744;DHT22;12052;53.478;10.182;2022-12-18T07:17:36;-8.00;99.90
23744;DHT22;12052;53.478;10.182;2022-12-18T07:20:01;-8.00;99.90
23744;DHT22;12052;53.478;10.182;2022-12-18T07:22:27;-8.00;99.90
23744;DHT22;12052;53.478;10.182;2022-12-18T07:24:53;-8.00;99.90
23744;DHT22;12052;53.478;10.182;2022-12-18T07:27:19;-8.00;99.90
23744;DHT22;12052;53.478;10.182;2022-12-18T07:29:44;-8.00;99.90
23744;DHT22;12052;53.478;10.182;2022-12-18T07:32:10;-8.00;99.90
23744;DHT22;12052;53.478;10.182;2022-12-18T07:34:35;-8.00;99.90
23744;DHT22;12052;53.478;10.182;2022-12-18T07:37:01;-8.00;99.90
23744;DHT22;12052;53.478;10.182;2022-12-18T07:39:27;-8.00;99.90
23744;DHT22;12052;53.478;10.182;2022-12-18T07:41:52;-8.00;99.90
23744;DHT22;12052;53.478;10.182;2022-12-18T07:44:36;-8.00;99.90
23744;DHT22;12052;53.478;10.182;2022-12-18T07:47:02;-8.00;99.90
23744;DHT22;12052;53.478;10.182;2022-12-18T07:49:28;-7.90;99.90
23744;DHT22;12052;53.478;10.182;2022-12-18T07:51:55;-7.90;99.90
23744;DHT22;12052;53.478;10.182;2022-12-18T07:54:21;-8.00;99.90
23744;DHT22;12052;53.478;10.182;2022-12-18T07:56:47;-7.90;99.90
23744;DHT22;12052;53.478;10.182;2022-12-18T07:59:12;-7.90;99.90
23744;DHT22;12052;53.478;10.182;2022-12-18T08:01:38;-7.90;99.90
23744;DHT22;12052;53.478;10.182;2022-12-18T08:04:04;-7.90;99.90
23744;DHT22;12052;53.478;10.182;2022-12-18T08:06:29;-7.90;99.90
23744;DHT22;12052;53.478;10.182;2022-12-18T08:08:55;-7.90;99.90
23744;DHT22;12052;53.478;10.182;2022-12-18T08:11:23;-7.90;99.90
23744;DHT22;12052;53.478;10.182;2022-12-18T08:13:49;-7.80;99.90
23744;DHT22;12052;53.478;10.182;2022-12-18T08:16:15;-7.80;99.90
23744;DHT22;12052;53.478;10.182;2022-12-18T08:18:41;-7.80;99.90
23744;DHT22;12052;53.478;10.182;2022-12-18T08:21:18;-7.70;99.90
23744;DHT22;12052;53.478;10.182;2022-12-18T08:23:44;-7.60;99.90
23744;DHT22;12052;53.478;10.182;2022-12-18T08:26:11;-7.50;99.90
23744;DHT22;12052;53.478;10.182;2022-12-18T08:28:37;-7.40;99.90
23744;DHT22;12052;53.478;10.182;2022-12-18T08:31:03;-7.30;99.90
23744;DHT22;12052;53.478;10.182;2022-12-18T08:33:29;-7.30;99.90
23744;DHT22;12052;53.478;10.182;2022-12-18T08:35:54;-7.20;99.90
23744;DHT22;12052;53.478;10.182;2022-12-18T08:38:20;-7.20;99.90
23744;DHT22;12052;53.478;10.182;2022-12-18T08:40:46;-7.10;99.90
23744;DHT22;12052;53.478;10.182;2022-12-18T08:43:12;-7.10;99.90
23744;DHT22;12052;53.478;10.182;2022-12-18T08:45:56;-7.00;99.90
23744;DHT22;12052;53.478;10.182;2022-12-18T08:48:22;-7.00;99.90
23744;DHT22;12052;53.478;10.182;2022-12-18T08:50:58;-6.90;99.90
23744;DHT22;12052;53.478;10.182;2022-12-18T08:53:24;-6.90;99.90
23744;DHT22;12052;53.478;10.182;2022-12-18T08:55:49;-6.80;99.90
23744;DHT22;12052;53.478;10.182;2022-12-18T08:58:15;-6.80;99.90
23744;DHT22;12052;53.478;10.182;2022-12-18T09:00:41;-6.70;99.90
23744;DHT22;12052;53.478;10.182;2022-12-18T09:03:18;-6.70;99.90
23744;DHT22;12052;53.478;10.182;2022-12-18T09:05:45;-6.70;99.90
23744;DHT22;12052;53.478;10.182;2022-12-18T09:08:11;-6.70;99.90
23744;DHT22;12052;53.478;10.182;2022-12-18T09:10:46;-6.70;99.90
23744;DHT22;12052;53.478;10.182;2022-12-18T09:13:13;-6.70;99.90
23744;DHT22;12052;53.478;10.182;2022-12-18T09:15:42;-6.70;99.90
23744;DHT22;12052;53.478;10.182;2022-12-18T09:18:09;-6.70;99.90
23744;DHT22;12052;53.478;10.182;2022-12-18T09:20:36;-6.70;99.90
23744;DHT22;12052;53.478;10.182;2022-12-18T09:23:02;-6.60;99.90
23744;DHT22;12052;53.478;10.182;2022-12-18T09:25:29;-6.60;99.90
23744;DHT22;12052;53.478;10.182;2022-12-18T09:28:01;-6.60;99.90
23744;DHT22;12052;53.478;10.182;2022-12-18T09:30:27;-6.60;99.90
23744;DHT22;12052;53.478;10.182;2022-12-18T09:32:53;-6.50;99.90
23744;DHT22;12052;53.478;10.182;2022-12-18T09:35:18;-6.50;99.90
23744;DHT22;12052;53.478;10.182;2022-12-18T09:37:44;-6.50;99.90
23744;DHT22;12052;53.478;10.182;2022-12-18T09:40:18;-6.50;99.90
23744;DHT22;12052;53.478;10.182;2022-12-18T09:42:48;-6.40;99.90
23744;DHT22;12052;53.478;10.182;2022-12-18T09:45:16;-6.40;99.90
23744;DHT22;12052;53.478;10.182;2022-12-18T09:47:43;-6.40;99.90
23744;DHT22;12052;53.478;10.182;2022-12-18T09:50:30;-6.30;99.90
23744;DHT22;12052;53.478;10.182;2022-12-18T09:52:59;-6.30;99.90
23744;DHT22;12052;53.478;10.182;2022-12-18T09:55:42;-6.20;99.90
23744;DHT22;12052;53.478;10.182;2022-12-18T09:58:32;-6.20;99.90
23744;DHT22;12052;53.478;10.182;2022-12-18T10:00:58;-6.10;99.90
23744;DHT22;12052;53.478;10.182;2022-12-18T10:03:24;-6.00;99.90
23744;DHT22;12052;53.478;10.182;2022-12-18T10:06:04;-6.00;99.90
23744;DHT22;12052;53.478;10.182;2022-12-18T10:15:04;-5.80;99.90
23744;DHT22;12052;53.478;10.182;2022-12-18T10:23:04;-5.70;99.90
23744;DHT22;12052;53.478;10.182;2022-12-18T10:28:13;-5.50;99.90
23744;DHT22;12052;53.478;10.182;2022-12-18T10:30:40;-5.50;99.90
23744;DHT22;12052;53.478;10.182;2022-12-18T10:33:08;-5.40;99.90
23744;DHT22;12052;53.478;10.182;2022-12-18T10:35:35;-5.40;99.90
23744;DHT22;12052;53.478;10.182;2022-12-18T10:40:51;-5.30;99.90
23744;DHT22;12052;53.478;10.182;2022-12-18T10:43:24;-5.20;99.90
23744;DHT22;12052;53.478;10.182;2022-12-18T10:51:05;-5.10;99.90
23744;DHT22;12052;53.478;10.182;2022-12-18T10:53:33;-5.00;99.90
23744;DHT22;12052;53.478;10.182;2022-12-18T10:56:00;-5.00;99.90
23744;DHT22;12052;53.478;10.182;2022-12-18T10:58:32;-5.00;99.90
23744;DHT22;12052;53.478;10.182;2022-12-18T11:01:15;-4.90;99.90
23744;DHT22;12052;53.478;10.182;2022-12-18T11:03:43;-4.80;99.90
23744;DHT22;12052;53.478;10.182;2022-12-18T11:06:15;-4.70;99.90
23744;DHT22;12052;53.478;10.182;2022-12-18T11:08:42;-4.70;99.90
23744;DHT22;12052;53.478;10.182;2022-12-18T11:11:22;-4.70;99.90
23744;DHT22;12052;53.478;10.182;2022-12-18T11:16:21;-4.60;99.90
23744;DHT22;12052;53.478;10.182;2022-12-18T11:18:47;-4.50;99.90
23744;DHT22;12052;53.478;10.182;2022-12-18T11:21:13;-4.50;99.90
23744;DHT22;12052;53.478;10.182;2022-12-18T11:23:53;-4.40;99.90
23744;DHT22;12052;53.478;10.182;2022-12-18T11:26:19;-4.40;99.90
23744;DHT22;12052;53.478;10.182;2022-12-18T11:28:50;-4.30;99.90
23744;DHT22;12052;53.478;10.182;2022-12-18T11:31:27;-4.30;99.90
23744;DHT22;12052;53.478;10.182;2022-12-18T11:36:44;-4.20;99.90
23744;DHT22;12052;53.478;10.182;2022-12-18T11:39:36;-4.10;99.90
23744;DHT22;12052;53.478;10.182;2022-12-18T11:42:21;-4.10;99.90
23744;DHT22;12052;53.478;10.182;2022-12-18T11:44:57;-4.00;99.90
23744;DHT22;12052;53.478;10.182;2022-12-18T11:50:18;-4.00;99.90
23744;DHT22;12052;53.478;10.182;2022-12-18T11:52:44;-4.00;99.90
23744;DHT22;12052;53.478;10.182;2022-12-18T11:55:27;-3.90;99.90
23744;DHT22;12052;53.478;10.182;2022-12-18T11:58:07;-3.90;99.90
23744;DHT22;12052;53.478;10.182;2022-12-18T12:00:43;-3.90;99.90
23744;DHT22;12052;53.478;10.182;2022-12-18T12:08:38;-3.70;99.90
23744;DHT22;12052;53.478;10.182;2022-12-18T12:22:23;-3.50;99.90
23744;DHT22;12052;53.478;10.182;2022-12-18T12:33:35;-3.40;99.90
23744;DHT22;12052;53.478;10.182;2022-12-18T12:38:47;-3.30;99.90
23744;DHT22;12052;53.478;10.182;2022-12-18T12:41:19;-3.30;99.90
23744;DHT22;12052;53.478;10.182;2022-12-18T12:44:07;-3.20;99.90
23744;DHT22;12052;53.478;10.182;2022-12-18T12:46:39;-3.20;99.90
23744;DHT22;12052;53.478;10.182;2022-12-18T12:49:18;-3.20;99.90
23744;DHT22;12052;53.478;10.182;2022-12-18T12:52:05;-3.10;99.90
23744;DHT22;12052;53.478;10.182;2022-12-18T12:54:32;-3.10;99.90
23744;DHT22;12052;53.478;10.182;2022-12-18T12:57:33;-3.10;99.90
23744;DHT22;12052;53.478;10.182;2022-12-18T13:03:11;-3.00;99.90
23744;DHT22;12052;53.478;10.182;2022-12-18T13:05:51;-3.00;99.90
23744;DHT22;12052;53.478;10.182;2022-12-18T13:08:27;-3.00;99.90
23744;DHT22;12052;53.478;10.182;2022-12-18T13:10:54;-3.00;99.90
23744;DHT22;12052;53.478;10.182;2022-12-18T13:13:50;-3.00;99.90
23744;DHT22;12052;53.478;10.182;2022-12-18T13:16:19;-3.00;99.90
23744;DHT22;12052;53.478;10.182;2022-12-18T13:18:53;-3.00;99.90
23744;DHT22;12052;53.478;10.182;2022-12-18T13:21:32;-3.00;99.90
23744;DHT22;12052;53.478;10.182;2022-12-18T13:24:27;-3.00;99.90
23744;DHT22;12052;53.478;10.182;2022-12-18T13:26:53;-3.00;99.90
23744;DHT22;12052;53.478;10.182;2022-12-18T13:32:20;-2.90;99.90
23744;DHT22;12052;53.478;10.182;2022-12-18T13:34:46;-3.00;99.90
23744;DHT22;12052;53.478;10.182;2022-12-18T13:37:40;-3.00;99.90
23744;DHT22;12052;53.478;10.182;2022-12-18T13:43:42;-3.10;99.90
23744;DHT22;12052;53.478;10.182;2022-12-18T13:49:06;-3.10;99.90
23744;DHT22;12052;53.478;10.182;2022-12-18T13:51:43;-3.20;99.90
23744;DHT22;12052;53.478;10.182;2022-12-18T13:54:17;-3.20;99.90
23744;DHT22;12052;53.478;10.182;2022-12-18T13:56:45;-3.20;99.90
23744;DHT22;12052;53.478;10.182;2022-12-18T13:59:20;-3.20;99.90
23744;DHT22;12052;53.478;10.182;2022-12-18T14:01:58;-3.20;99.90
23744;DHT22;12052;53.478;10.182;2022-12-18T14:04:28;-3.30;99.90
23744;DHT22;12052;53.478;10.182;2022-12-18T14:07:15;-3.30;99.90
23744;DHT22;12052;53.478;10.182;2022-12-18T14:09:57;-3.30;99.90
23744;DHT22;12052;53.478;10.182;2022-12-18T14:12:32;-3.30;99.90
23744;DHT22;12052;53.478;10.182;2022-12-18T14:17:58;-3.40;99.90
23744;DHT22;12052;53.478;10.182;2022-12-18T14:20:26;-3.40;99.90
23744;DHT22;12052;53.478;10.182;2022-12-18T14:22:52;-3.50;99.90
23744;DHT22;12052;53.478;10.182;2022-12-18T14:25:21;-3.50;99.90
23744;DHT22;12052;53.478;10.182;2022-12-18T14:27:53;-3.50;99.90
23744;DHT22;12052;53.478;10.182;2022-12-18T14:30:30;-3.50;99.90
23744;DHT22;12052;53.478;10.182;2022-12-18T14:33:20;-3.60;99.90
23744;DHT22;12052;53.478;10.182;2022-12-18T14:36:03;-3.60;99.90
23744;DHT22;12052;53.478;10.182;2022-12-18T14:38:39;-3.60;99.90
23744;DHT22;12052;53.478;10.182;2022-12-18T14:41:12;-3.60;99.90
23744;DHT22;12052;53.478;10.182;2022-12-18T14:43:39;-3.70;99.90
23744;DHT22;12052;53.478;10.182;2022-12-18T14:46:25;-3.70;99.90
23744;DHT22;12052;53.478;10.182;2022-12-18T14:48:52;-3.70;99.90
23744;DHT22;12052;53.478;10.182;2022-12-18T14:51:23;-3.70;99.90
23744;DHT22;12052;53.478;10.182;2022-12-18T14:53:58;-3.70;99.90
23744;DHT22;12052;53.478;10.182;2022-12-18T14:56:31;-3.80;99.90
23744;DHT22;12052;53.478;10.182;2022-12-18T14:59:03;-3.80;99.90
23744;DHT22;12052;53.478;10.182;2022-12-18T15:01:33;-3.80;99.90
23744;DHT22;12052;53.478;10.182;2022-12-18T15:04:01;-3.80;99.90
23744;DHT22;12052;53.478;10.182;2022-12-18T15:06:36;-3.80;99.90
23744;DHT22;12052;53.478;10.182;2022-12-18T15:09:28;-3.90;99.90
23744;DHT22;12052;53.478;10.182;2022-12-18T15:11:59;-3.80;99.90
23744;DHT22;12052;53.478;10.182;2022-12-18T15:14:38;-3.90;99.90
23744;DHT22;12052;53.478;10.182;2022-12-18T15:17:14;-3.90;99.90
23744;DHT22;12052;53.478;10.182;2022-12-18T15:19:42;-3.90;99.90
23744;DHT22;12052;53.478;10.182;2022-12-18T15:22:38;-3.90;99.90
23744;DHT22;12052;53.478;10.182;2022-12-18T15:25:41;-3.90;99.90
23744;DHT22;12052;53.478;10.182;2022-12-18T15:28:24;-4.00;99.90
23744;DHT22;12052;53.478;10.182;2022-12-18T15:31:00;-4.00;99.90
23744;DHT22;12052;53.478;10.182;2022-12-18T15:33:31;-4.00;99.90
23744;DHT22;12052;53.478;10.182;2022-12-18T15:36:02;-4.00;99.90
23744;DHT22;12052;53.478;10.182;2022-12-18T15:38:28;-4.00;99.90
23744;DHT22;12052;53.478;10.182;2022-12-18T15:40:54;-4.00;99.90
23744;DHT22;12052;53.478;10.182;2022-12-18T15:43:22;-4.00;99.90
23744;DHT22;12052;53.478;10.182;2022-12-18T15:46:12;-4.10;99.90
23744;DHT22;12052;53.478;10.182;2022-12-18T15:48:41;-4.10;99.90
23744;DHT22;12052;53.478;10.182;2022-12-18T15:51:17;-4.10;99.90
23744;DHT22;12052;53.478;10.182;2022-12-18T15:53:44;-4.10;99.90
23744;DHT22;12052;53.478;10.182;2022-12-18T15:56:14;-4.10;99.90
23744;DHT22;12052;53.478;10.182;2022-12-18T15:58:59;-4.10;99.90
23744;DHT22;12052;53.478;10.182;2022-12-18T16:01:27;-4.10;99.90
23744;DHT22;12052;53.478;10.182;2022-12-18T16:03:53;-4.10;99.90
23744;DHT22;12052;53.478;10.182;2022-12-18T16:06:20;-4.10;99.90
23744;DHT22;12052;53.478;10.182;2022-12-18T16:08:46;-4.10;99.90
23744;DHT22;12052;53.478;10.182;2022-12-18T16:11:27;-4.10;99.90
23744;DHT22;12052;53.478;10.182;2022-12-18T16:14:22;-4.10;99.90
23744;DHT22;12052;53.478;10.182;2022-12-18T16:16:53;-4.00;99.90
23744;DHT22;12052;53.478;10.182;2022-12-18T16:19:19;-4.10;99.90
23744;DHT22;12052;53.478;10.182;2022-12-18T16:21:47;-4.00;99.90
23744;DHT22;12052;53.478;10.182;2022-12-18T16:24:15;-4.10;99.90
23744;DHT22;12052;53.478;10.182;2022-12-18T16:26:42;-4.00;99.90
23744;DHT22;12052;53.478;10.182;2022-12-18T16:29:08;-4.00;99.90
23744;DHT22;12052;53.478;10.182;2022-12-18T16:31:34;-4.00;99.90
23744;DHT22;12052;53.478;10.182;2022-12-18T16:36:49;-4.00;99.90
23744;DHT22;12052;53.478;10.182;2022-12-18T16:39:15;-4.00;99.90
23744;DHT22;12052;53.478;10.182;2022-12-18T16:41:41;-4.00;99.90
23744;DHT22;12052;53.478;10.182;2022-12-18T16:44:07;-4.00;99.90
23744;DHT22;12052;53.478;10.182;2022-12-18T16:46:32;-4.00;99.90
23744;DHT22;12052;53.478;10.182;2022-12-18T16:48:59;-4.00;99.90
23744;DHT22;12052;53.478;10.182;2022-12-18T16:51:26;-4.00;99.90
23744;DHT22;12052;53.478;10.182;2022-12-18T16:53:55;-4.00;99.90
23744;DHT22;12052;53.478;10.182;2022-12-18T16:56:21;-4.00;99.90
23744;DHT22;12052;53.478;10.182;2022-12-18T16:58:51;-4.00;99.90
23744;DHT22;12052;53.478;10.182;2022-12-18T17:01:17;-4.00;99.90
23744;DHT22;12052;53.478;10.182;2022-12-18T17:03:43;-3.90;99.90
23744;DHT22;12052;53.478;10.182;2022-12-18T17:06:08;-4.00;99.90
23744;DHT22;12052;53.478;10.182;2022-12-18T17:08:34;-4.00;99.90
23744;DHT22;12052;53.478;10.182;2022-12-18T17:11:04;-4.00;99.90
23744;DHT22;12052;53.478;10.182;2022-12-18T17:13:30;-3.90;99.90